createdAt,value
2019-03-06T00:01:59.517Z,79.33
2019-03-06T00:04:32.863Z,79.21
2019-03-06T00:07:10.925Z,79.33
2019-03-06T00:09:43.290Z,79.18
2019-03-06T00:12:16.064Z,79.25
2019-03-06T00:14:53.599Z,79.08
2019-03-06T00:17:34.732Z,78.95
2019-03-06T00:20:14.178Z,79.09
2019-03-06T00:22:48.000Z,78.92
2019-03-06T00:25:22.205Z,78.94
2019-03-06T00:28:01.420Z,79.01
2019-03-06T00:36:29.071Z,78.98
2019-03-06T00:39:19.846Z,78.84
2019-03-06T00:42:01.212Z,79.08
2019-03-06T00:44:34.005Z,78.88
2019-03-06T00:47:07.222Z,78.73
2019-03-06T00:49:51.819Z,78.74
2019-03-06T00:52:32.994Z,78.71
2019-03-06T00:55:10.248Z,78.73
2019-03-06T00:57:44.929Z,78.90
2019-03-06T01:00:19.139Z,78.70
2019-03-06T01:02:53.374Z,78.79
2019-03-06T01:05:56.873Z,78.79
2019-03-06T01:08:28.828Z,78.70
2019-03-06T01:11:15.433Z,78.79
2019-03-06T01:13:49.473Z,78.93
2019-03-06T01:16:23.223Z,78.99
2019-03-06T01:18:55.422Z,79.22
2019-03-06T01:21:26.361Z,79.33
2019-03-06T01:23:58.936Z,79.37
2019-03-06T01:26:34.286Z,79.35
2019-03-06T01:29:07.058Z,79.59
2019-03-06T01:31:40.644Z,79.68
2019-03-06T01:34:25.015Z,79.81
2019-03-06T01:37:05.596Z,79.76
2019-03-06T01:40:43.691Z,79.84
2019-03-06T01:43:24.281Z,80.17
2019-03-06T01:45:57.326Z,80.25
2019-03-06T01:48:30.019Z,80.21
2019-03-06T01:51:06.002Z,80.29
2019-03-06T01:53:41.011Z,80.29
2019-03-06T01:56:11.927Z,80.43
2019-03-06T01:58:46.110Z,80.30
2019-03-06T02:01:16.876Z,80.41
2019-03-06T02:03:46.892Z,80.50
2019-03-06T02:06:18.581Z,80.36
2019-03-06T02:08:57.624Z,80.29
2019-03-06T02:11:30.332Z,80.38
2019-03-06T02:14:02.087Z,80.64
2019-03-06T02:16:39.340Z,80.76
2019-03-06T02:19:13.741Z,80.62
2019-03-06T02:21:51.213Z,80.80
2019-03-06T02:24:28.599Z,80.80
2019-03-06T02:29:50.639Z,80.81
2019-03-06T02:32:28.526Z,80.70
2019-03-06T02:35:02.394Z,80.58
2019-03-06T02:40:15.579Z,80.74
2019-03-06T02:42:51.187Z,80.63
2019-03-06T02:45:24.428Z,80.76
2019-03-06T02:48:06.104Z,80.66
2019-03-06T02:53:17.245Z,80.79
2019-03-06T02:55:53.449Z,80.88
2019-03-06T02:58:31.280Z,81.01
2019-03-06T03:01:05.408Z,80.98
2019-03-06T03:04:17.737Z,81.08
2019-03-06T03:06:55.407Z,81.42
2019-03-06T03:09:26.514Z,81.54
2019-03-06T03:12:00.686Z,81.64
2019-03-06T03:14:46.419Z,81.91
2019-03-06T03:17:18.842Z,82.12
2019-03-06T03:19:50.616Z,82.03
2019-03-06T03:25:10.779Z,82.25
2019-03-06T03:27:47.126Z,82.34
2019-03-06T03:30:20.540Z,82.50
2019-03-06T03:58:57.843Z,82.81
2019-03-06T04:01:30.517Z,82.60
2019-03-06T04:04:00.926Z,82.50
2019-03-06T04:06:30.661Z,82.61
2019-03-06T04:08:59.857Z,82.40
2019-03-06T04:11:30.989Z,82.70
2019-03-06T04:14:00.702Z,82.54
2019-03-06T04:16:30.742Z,82.71
2019-03-06T04:19:02.813Z,82.70
2019-03-06T04:21:33.419Z,82.72
2019-03-06T04:24:06.277Z,82.47
2019-03-06T04:26:37.279Z,82.65
2019-03-06T04:29:08.913Z,82.58
2019-03-06T04:31:42.206Z,82.43
2019-03-06T04:34:15.089Z,82.35
2019-03-06T04:36:49.518Z,82.40
2019-03-06T04:39:25.961Z,82.33
2019-03-06T04:42:02.672Z,82.11
2019-03-06T04:44:33.314Z,82.21
2019-03-06T04:47:04.371Z,82.18
2019-03-06T04:49:37.103Z,82.04
2019-03-06T04:52:13.619Z,82.07
2019-03-06T04:54:45.031Z,82.17
2019-03-06T04:57:16.575Z,82.02
2019-03-06T04:59:48.028Z,82.01
2019-03-06T05:02:22.387Z,82.28
2019-03-06T05:04:56.847Z,82.44
2019-03-06T05:07:28.556Z,82.35
2019-03-06T05:10:00.299Z,82.64
2019-03-06T05:12:36.145Z,82.66
2019-03-06T05:15:07.305Z,82.66
2019-03-06T05:24:35.295Z,82.33
2019-03-06T05:27:05.262Z,82.24
2019-03-06T05:29:41.295Z,82.43
2019-03-06T05:32:24.091Z,82.29
2019-03-06T05:34:54.892Z,82.15
2019-03-06T05:37:35.520Z,82.10
2019-03-06T05:40:05.356Z,81.86
2019-03-06T05:42:38.925Z,82.03
2019-03-06T05:45:10.190Z,81.93
2019-03-06T05:47:43.387Z,81.70
2019-03-06T05:50:20.237Z,81.69
2019-03-06T05:52:51.794Z,81.52
2019-03-06T05:55:27.003Z,81.79
2019-03-06T05:58:05.652Z,81.63
2019-03-06T06:00:37.262Z,81.53
2019-03-06T06:03:10.566Z,81.60
2019-03-06T06:05:45.527Z,81.50
2019-03-06T06:08:16.674Z,81.48
2019-03-06T06:10:56.014Z,81.40
2019-03-06T06:13:31.162Z,81.15
2019-03-06T06:16:01.670Z,81.23
2019-03-06T06:18:32.267Z,81.35
2019-03-06T06:21:19.585Z,81.05
2019-03-06T06:23:58.518Z,81.18
2019-03-06T06:26:30.635Z,81.01
2019-03-06T06:29:02.264Z,81.07
2019-03-06T06:31:39.317Z,80.96
2019-03-06T06:34:09.544Z,81.03
2019-03-06T06:36:38.838Z,81.31
2019-03-06T06:39:09.880Z,81.02
2019-03-06T06:41:40.322Z,80.94
2019-03-06T06:44:13.127Z,80.84
2019-03-06T06:46:44.557Z,80.82
2019-03-06T06:49:14.895Z,80.93
2019-03-06T06:58:17.015Z,80.62
2019-03-06T07:01:08.982Z,80.66
2019-03-06T07:04:04.755Z,80.67
2019-03-06T07:07:40.936Z,80.72
2019-03-06T07:10:16.278Z,80.46
2019-03-06T07:12:55.100Z,80.63
2019-03-06T07:15:34.233Z,80.50
2019-03-06T07:18:10.466Z,80.50
2019-03-06T07:20:48.915Z,80.53
2019-03-06T07:23:31.597Z,80.39
2019-03-06T07:26:10.053Z,80.71
2019-03-06T07:28:46.636Z,80.78
2019-03-06T07:31:26.957Z,80.89
2019-03-06T07:34:01.828Z,81.25
2019-03-06T07:36:37.430Z,81.32
2019-03-06T07:39:14.325Z,81.54
2019-03-06T07:42:49.643Z,81.67
2019-03-06T07:45:33.732Z,81.50
2019-03-06T07:48:12.251Z,81.68
2019-03-06T07:50:56.779Z,81.64
2019-03-06T07:53:46.741Z,81.67
2019-03-06T07:56:22.429Z,81.41
2019-03-06T07:58:56.339Z,81.57
2019-03-06T08:01:28.667Z,81.74
2019-03-06T08:04:06.732Z,81.67
2019-03-06T08:06:38.379Z,81.51
2019-03-06T08:09:14.253Z,81.49
2019-03-06T08:11:48.239Z,81.70
2019-03-06T08:14:24.398Z,81.50
2019-03-06T08:17:01.151Z,81.65
2019-03-06T08:19:39.257Z,81.65
2019-03-06T08:22:21.170Z,81.50
2019-03-06T08:24:59.516Z,81.38
2019-03-06T08:27:33.352Z,81.46
2019-03-06T08:30:08.972Z,81.22
2019-03-06T08:32:52.339Z,81.17
2019-03-06T08:35:24.354Z,81.08
2019-03-06T08:37:57.425Z,80.89
2019-03-06T08:40:29.805Z,80.91
2019-03-06T08:42:59.905Z,80.75
2019-03-06T08:45:41.817Z,80.66
2019-03-06T08:48:18.574Z,80.50
2019-03-06T08:51:03.317Z,80.58
2019-03-06T08:53:41.326Z,80.43
2019-03-06T08:56:20.361Z,80.52
2019-03-06T08:59:05.137Z,80.32
2019-03-06T09:01:40.064Z,80.20
2019-03-06T09:08:33.723Z,79.88
2019-03-06T09:11:08.576Z,79.45
2019-03-06T09:14:15.783Z,79.49
2019-03-06T09:17:17.698Z,79.46
2019-03-06T09:34:25.990Z,79.55
2019-03-06T09:37:15.211Z,79.31
2019-03-06T09:39:50.974Z,79.50
2019-03-06T09:42:32.396Z,79.60
2019-03-06T09:45:25.159Z,79.94
2019-03-06T09:48:00.798Z,79.67
2019-03-06T09:50:53.233Z,80.18
2019-03-06T09:53:36.664Z,80.03
2019-03-06T09:56:14.840Z,80.31
2019-03-06T09:59:08.610Z,80.28
2019-03-06T10:04:27.847Z,80.42
2019-03-06T10:07:08.762Z,80.15
2019-03-06T10:10:57.008Z,80.07
2019-03-06T10:13:31.770Z,80.11
2019-03-06T10:16:08.356Z,80.06
2019-03-06T10:18:44.328Z,80.16
2019-03-06T10:21:14.926Z,79.91
2019-03-06T10:23:46.170Z,79.72
2019-03-06T10:26:23.165Z,79.70
2019-03-06T10:29:02.157Z,79.68
2019-03-06T10:31:38.588Z,79.71
2019-03-06T10:34:08.912Z,79.92
2019-03-06T10:36:43.428Z,79.75
2019-03-06T10:39:19.388Z,79.14
2019-03-06T10:41:52.037Z,78.93
2019-03-06T10:44:29.481Z,78.66
2019-03-06T10:46:56.996Z,78.51
2019-03-06T10:49:31.278Z,78.20
2019-03-06T10:52:05.538Z,77.56
2019-03-06T10:54:44.672Z,77.20
2019-03-06T10:57:11.798Z,77.27
2019-03-06T10:59:40.761Z,77.26
2019-03-06T11:02:11.871Z,77.05
2019-03-06T11:04:53.209Z,76.84
2019-03-06T11:07:23.217Z,76.61
2019-03-06T11:09:54.454Z,76.70
2019-03-06T11:12:26.525Z,76.76
2019-03-06T11:15:00.772Z,76.53
2019-03-06T11:17:37.795Z,76.22
2019-03-06T11:20:10.437Z,76.30
2019-03-06T11:22:42.207Z,76.39
2019-03-06T11:25:17.697Z,76.20
2019-03-06T11:27:50.686Z,76.14
2019-03-06T11:30:28.058Z,75.79
2019-03-06T11:33:00.813Z,75.61
2019-03-06T11:41:01.096Z,75.38
2019-03-06T11:43:38.714Z,75.35
2019-03-06T11:46:09.153Z,75.08
2019-03-06T11:48:41.552Z,75.00
2019-03-06T11:51:13.705Z,74.89
2019-03-06T11:53:43.155Z,75.04
2019-03-06T11:56:13.284Z,75.06
2019-03-06T11:58:44.496Z,75.28
2019-03-06T12:01:18.610Z,75.11
2019-03-06T12:03:50.397Z,75.23
2019-03-06T12:06:24.792Z,74.78
2019-03-06T12:08:55.011Z,75.03
2019-03-06T12:11:29.821Z,74.81
2019-03-06T12:14:02.502Z,75.20
2019-03-06T12:16:41.669Z,75.08
2019-03-06T12:19:08.209Z,75.13
2019-03-06T12:21:41.006Z,75.11
2019-03-06T12:24:13.146Z,75.03
2019-03-06T12:26:43.322Z,74.76
2019-03-06T12:29:17.792Z,74.49
2019-03-06T12:31:47.187Z,74.24
2019-03-06T12:34:16.787Z,74.42
2019-03-06T12:36:47.324Z,73.85
2019-03-06T12:39:22.687Z,73.68
2019-03-06T12:41:51.870Z,73.44
2019-03-06T12:44:27.176Z,73.54
2019-03-06T12:46:59.498Z,73.42
2019-03-06T12:49:32.542Z,73.54
2019-03-06T12:52:05.336Z,73.62
2019-03-06T12:54:41.126Z,73.40
2019-03-06T12:57:12.206Z,73.11
2019-03-06T12:59:45.109Z,73.25
2019-03-06T13:02:24.615Z,73.13
2019-03-06T13:05:08.659Z,73.30
2019-03-06T13:07:42.177Z,73.43
2019-03-06T13:10:15.657Z,73.49
2019-03-06T13:15:31.617Z,73.79
2019-03-06T13:18:12.205Z,74.07
2019-03-06T13:20:43.009Z,73.79
2019-03-06T13:25:48.789Z,74.09
2019-03-06T13:28:22.190Z,74.25
2019-03-06T13:30:57.390Z,74.26
2019-03-06T13:33:42.149Z,74.12
2019-03-06T13:36:13.946Z,74.42
2019-03-06T13:38:54.719Z,74.60
2019-03-06T13:41:21.560Z,74.58
2019-03-06T13:43:56.297Z,74.20
2019-03-06T13:46:26.640Z,74.43
2019-03-06T13:48:56.724Z,74.26
2019-03-06T13:51:29.154Z,74.21
2019-03-06T13:54:06.616Z,73.99
2019-03-06T13:56:39.685Z,73.99
2019-03-06T13:59:13.343Z,73.92
2019-03-06T14:01:47.916Z,73.62
2019-03-06T14:04:19.185Z,73.24
2019-03-06T14:06:53.272Z,73.65
2019-03-06T14:09:29.523Z,73.47
2019-03-06T14:12:05.951Z,73.42
2019-03-06T14:14:39.638Z,73.67
2019-03-06T14:17:12.148Z,73.33
2019-03-06T14:19:42.576Z,73.41
2019-03-06T14:22:13.656Z,72.76
2019-03-06T14:24:53.156Z,72.83
2019-03-06T14:45:05.613Z,72.64
2019-03-06T14:47:38.494Z,72.72
2019-03-06T14:50:11.770Z,72.89
2019-03-06T14:52:48.075Z,72.69
2019-03-06T14:55:19.887Z,72.83
2019-03-06T14:57:50.788Z,72.83
2019-03-06T15:00:20.550Z,73.19
2019-03-06T15:02:52.919Z,73.34
2019-03-06T15:05:23.238Z,73.47
2019-03-06T15:07:54.983Z,73.74
2019-03-06T15:10:25.369Z,73.87
2019-03-06T15:13:08.563Z,74.25
2019-03-06T15:21:11.464Z,74.83
2019-03-06T15:23:44.163Z,75.17
2019-03-06T15:32:13.607Z,74.52
2019-03-06T15:37:59.043Z,73.97
